Time;durP1;ratioP1;P1;durP2;ratioP2;P2;SDS_P1;SDS_P2;PMS_P1;PMS_P2;Temp;Humidity;BMP_temperature;BMP_pressure;BME280_temperature;BME280_humidity;BME280_pressure;Samples;Min_cycle;Max_cycle;Signal;HPM_P1;HPM_P2
2022/05/30 00:01:51;;;;;;;2.70;1.17;;;;;;;;;;5077995;28;20537;-74
2022/05/30 00:04:17;;;;;;;2.90;0.73;;;;;;;;;;5065607;28;20036;-73
2022/05/30 00:06:43;;;;;;;8.48;1.10;;;;;;;;;;5068294;28;20044;-73
2022/05/30 00:09:13;;;;;;;5.18;1.00;;;;;;;;;;5065748;28;20031;-74
2022/05/30 00:11:39;;;;;;;5.22;1.13;;;;;;;;;;5068612;28;20418;-75
2022/05/30 00:14:05;;;;;;;3.50;1.00;;;;;;;;;;5062954;28;20464;-74
2022/05/30 00:16:31;;;;;;;4.32;0.80;;;;;;;;;;5071739;28;20043;-75
2022/05/30 00:19:00;;;;;;;4.07;0.70;;;;;;;;;;5070058;28;20078;-75
2022/05/30 00:21:26;;;;;;;3.75;1.17;;;;;;;;;;5069489;28;20078;-74
2022/05/30 00:23:53;;;;;;;6.25;1.75;;;;;;;;;;5070693;28;20177;-74
2022/05/30 00:26:20;;;;;;;5.15;1.10;;;;;;;;;;5070611;28;20028;-74
2022/05/30 00:28:46;;;;;;;2.03;0.68;;;;;;;;;;5073873;28;20032;-75
2022/05/30 00:31:13;;;;;;;2.10;0.80;;;;;;;;;;5075331;28;20382;-74
2022/05/30 00:33:40;;;;;;;4.55;0.95;;;;;;;;;;5070629;28;20042;-74
2022/05/30 00:36:06;;;;;;;3.75;0.82;;;;;;;;;;5072968;28;20379;-74
2022/05/30 00:38:32;;;;;;;1.33;0.57;;;;;;;;;;5060319;28;20030;-74
2022/05/30 00:40:58;;;;;;;3.90;0.63;;;;;;;;;;5042535;28;20409;-74
2022/05/30 00:43:26;;;;;;;6.60;0.82;;;;;;;;;;5070291;28;20036;-74
2022/05/30 00:45:52;;;;;;;2.10;0.60;;;;;;;;;;5055896;28;20498;-74
2022/05/30 00:48:20;;;;;;;5.47;0.60;;;;;;;;;;5055337;28;20029;-74
2022/05/30 00:50:47;;;;;;;2.45;0.60;;;;;;;;;;5060363;28;20033;-74
2022/05/30 00:53:13;;;;;;;3.38;0.73;;;;;;;;;;5090544;28;20383;-74
2022/05/30 00:55:40;;;;;;;4.35;0.80;;;;;;;;;;5072704;28;20462;-74
2022/05/30 00:58:08;;;;;;;3.08;0.98;;;;;;;;;;5060524;28;20093;-74
2022/05/30 01:00:34;;;;;;;4.50;0.93;;;;;;;;;;5069795;28;20052;-75
2022/05/30 01:08:31;;;;;;;3.40;0.60;;;;;;;;;;5050576;28;20043;-75
2022/05/30 01:10:57;;;;;;;2.40;0.85;;;;;;;;;;5078420;28;20032;-75
2022/05/30 01:13:27;;;;;;;6.10;1.55;;;;;;;;;;5086881;28;20586;-74
2022/05/30 01:15:53;;;;;;;2.10;0.55;;;;;;;;;;5061694;28;20396;-75
2022/05/30 01:18:24;;;;;;;3.80;0.80;;;;;;;;;;5082070;28;20024;-75
2022/05/30 01:20:58;;;;;;;5.47;0.80;;;;;;;;;;5058081;28;20029;-75
2022/05/30 01:23:33;;;;;;;3.53;0.80;;;;;;;;;;5076213;28;20467;-75
2022/05/30 01:26:11;;;;;;;4.90;0.77;;;;;;;;;;5060647;28;20365;-75
2022/05/30 01:28:40;;;;;;;4.00;0.70;;;;;;;;;;5061548;28;20018;-75
2022/05/30 01:31:07;;;;;;;5.05;0.80;;;;;;;;;;5058233;28;20033;-75
2022/05/30 01:33:33;;;;;;;6.60;1.25;;;;;;;;;;5069377;28;20086;-75
2022/05/30 01:35:59;;;;;;;2.60;0.65;;;;;;;;;;5058289;28;20029;-75
2022/05/30 01:38:25;;;;;;;3.45;0.77;;;;;;;;;;5079663;28;20029;-75
2022/05/30 01:40:51;;;;;;;2.60;0.73;;;;;;;;;;5073025;28;20032;-75
2022/05/30 01:43:17;;;;;;;6.15;0.93;;;;;;;;;;5069089;28;20384;-75
2022/05/30 01:45:44;;;;;;;8.32;1.20;;;;;;;;;;5072681;28;20036;-75
2022/05/30 01:48:10;;;;;;;4.40;0.77;;;;;;;;;;5079641;28;20039;-75
2022/05/30 01:50:36;;;;;;;5.18;1.25;;;;;;;;;;5075428;28;20040;-75
2022/05/30 01:53:02;;;;;;;3.80;0.90;;;;;;;;;;5068946;28;20388;-74
2022/05/30 01:55:28;;;;;;;2.70;0.88;;;;;;;;;;5082187;28;20490;-74
2022/05/30 01:57:54;;;;;;;2.85;0.50;;;;;;;;;;5079137;28;20020;-74
2022/05/30 02:00:20;;;;;;;4.60;1.70;;;;;;;;;;5059241;28;21190;-74
2022/05/30 02:02:46;;;;;;;2.03;0.90;;;;;;;;;;5071591;28;20387;-74
2022/05/30 02:05:12;;;;;;;6.07;1.02;;;;;;;;;;5053320;28;20033;-75
2022/05/30 02:07:39;;;;;;;2.22;0.65;;;;;;;;;;5069825;28;20149;-74
2022/05/30 02:10:05;;;;;;;6.18;1.10;;;;;;;;;;5093794;28;20099;-74
2022/05/30 02:12:31;;;;;;;5.93;1.50;;;;;;;;;;5079066;28;20040;-75
2022/05/30 02:14:57;;;;;;;4.40;1.00;;;;;;;;;;5072168;28;20063;-74
2022/05/30 02:17:25;;;;;;;5.55;0.88;;;;;;;;;;5071148;28;20068;-74
2022/05/30 02:19:51;;;;;;;4.95;1.52;;;;;;;;;;5069808;28;20035;-75
2022/05/30 02:22:21;;;;;;;5.63;1.17;;;;;;;;;;5069213;28;20033;-75
2022/05/30 02:24:48;;;;;;;5.90;0.98;;;;;;;;;;5073107;28;20057;-74
2022/05/30 02:27:15;;;;;;;2.75;0.60;;;;;;;;;;5061888;28;20032;-75
2022/05/30 02:29:41;;;;;;;6.65;0.98;;;;;;;;;;5068385;28;20067;-75
2022/05/30 02:32:07;;;;;;;5.00;0.90;;;;;;;;;;5079974;28;20056;-75
2022/05/30 02:37:18;;;;;;;3.85;1.02;;;;;;;;;;5070273;28;20040;-75
2022/05/30 02:39:44;;;;;;;8.15;1.08;;;;;;;;;;5072978;28;20029;-74
2022/05/30 02:42:10;;;;;;;6.95;1.13;;;;;;;;;;5064064;28;20487;-74
2022/05/30 02:44:36;;;;;;;2.97;1.23;;;;;;;;;;5076698;28;20488;-75
2022/05/30 02:47:03;;;;;;;3.15;1.20;;;;;;;;;;5066444;28;20016;-74
2022/05/30 02:49:29;;;;;;;4.85;1.40;;;;;;;;;;5061923;28;20464;-74
2022/05/30 02:51:55;;;;;;;7.40;1.10;;;;;;;;;;5080893;28;20028;-74
2022/05/30 02:54:21;;;;;;;7.05;1.88;;;;;;;;;;5082054;28;20101;-74
2022/05/30 02:56:52;;;;;;;4.50;1.42;;;;;;;;;;5088117;28;20094;-74
2022/05/30 02:59:18;;;;;;;5.22;1.40;;;;;;;;;;5068903;28;20103;-74
2022/05/30 03:01:44;;;;;;;4.93;1.10;;;;;;;;;;5078757;28;20388;-74
2022/05/30 03:04:11;;;;;;;7.45;1.45;;;;;;;;;;5071866;28;20036;-74
2022/05/30 03:06:37;;;;;;;7.70;1.65;;;;;;;;;;5070027;28;20041;-74
2022/05/30 03:09:04;;;;;;;6.72;1.80;;;;;;;;;;5055127;28;20033;-74
2022/05/30 03:11:30;;;;;;;12.05;2.30;;;;;;;;;;5071913;28;20035;-74
2022/05/30 03:13:56;;;;;;;9.07;1.75;;;;;;;;;;5067480;28;20028;-74
2022/05/30 03:16:21;;;;;;;5.43;1.60;;;;;;;;;;5068673;28;20403;-74
2022/05/30 03:18:47;;;;;;;6.38;1.52;;;;;;;;;;5056157;28;20029;-74
2022/05/30 03:21:14;;;;;;;7.80;1.80;;;;;;;;;;5068631;28;20032;-74
2022/05/30 03:23:40;;;;;;;8.07;1.60;;;;;;;;;;5069162;28;20041;-73
2022/05/30 03:26:06;;;;;;;8.98;2.00;;;;;;;;;;5089128;28;20394;-73
2022/05/30 03:28:33;;;;;;;6.22;2.03;;;;;;;;;;5075446;28;20106;-73
2022/05/30 03:30:59;;;;;;;5.28;1.70;;;;;;;;;;5063303;28;20028;-73
2022/05/30 03:33:26;;;;;;;4.00;2.13;;;;;;;;;;5048357;28;20101;-73
2022/05/30 03:35:52;;;;;;;6.80;1.77;;;;;;;;;;5081225;28;20082;-73
2022/05/30 03:38:18;;;;;;;10.88;1.92;;;;;;;;;;5075684;28;20036;-73
2022/05/30 03:40:44;;;;;;;7.68;1.50;;;;;;;;;;5077045;28;20103;-73
2022/05/30 03:43:11;;;;;;;8.02;1.80;;;;;;;;;;5061419;28;20059;-73
2022/05/30 03:45:38;;;;;;;8.35;1.77;;;;;;;;;;5070523;28;20033;-74
2022/05/30 03:48:04;;;;;;;8.10;2.45;;;;;;;;;;5073090;28;20050;-74
2022/05/30 03:50:31;;;;;;;5.03;1.80;;;;;;;;;;5072381;28;20032;-74
2022/05/30 03:53:04;;;;;;;5.63;1.38;;;;;;;;;;5082623;28;20039;-74
2022/05/30 03:55:31;;;;;;;6.07;1.42;;;;;;;;;;5041209;28;20107;-73
2022/05/30 03:57:57;;;;;;;6.00;1.77;;;;;;;;;;5063720;28;20047;-73
2022/05/30 04:00:23;;;;;;;8.55;1.50;;;;;;;;;;5058950;28;20040;-73
2022/05/30 04:02:50;;;;;;;5.40;1.52;;;;;;;;;;5084859;28;20104;-73
2022/05/30 04:05:18;;;;;;;4.93;1.83;;;;;;;;;;5068525;28;20099;-73
2022/05/30 04:07:44;;;;;;;7.10;2.00;;;;;;;;;;5063370;28;20052;-74
2022/05/30 04:10:10;;;;;;;4.80;2.05;;;;;;;;;;5067403;28;20213;-74
2022/05/30 04:12:36;;;;;;;6.95;1.58;;;;;;;;;;5078714;28;20037;-74
2022/05/30 04:15:04;;;;;;;3.97;1.70;;;;;;;;;;5067057;28;20549;-74
2022/05/30 04:17:32;;;;;;;3.70;1.40;;;;;;;;;;5070882;28;20033;-74
2022/05/30 04:19:58;;;;;;;2.13;1.30;;;;;;;;;;5070433;28;20421;-74
2022/05/30 04:22:24;;;;;;;5.35;1.58;;;;;;;;;;5067365;28;20032;-74
2022/05/30 04:24:51;;;;;;;2.47;1.02;;;;;;;;;;5069379;28;20036;-75
2022/05/30 04:27:17;;;;;;;4.03;1.27;;;;;;;;;;5075207;28;20040;-72
2022/05/30 04:29:43;;;;;;;4.13;1.38;;;;;;;;;;5048257;28;20029;-74
2022/05/30 04:32:10;;;;;;;5.03;1.42;;;;;;;;;;5071774;28;20060;-74
2022/05/30 04:34:36;;;;;;;5.65;1.55;;;;;;;;;;5053651;28;20407;-74
2022/05/30 04:37:03;;;;;;;5.10;1.52;;;;;;;;;;5057625;28;20033;-74
2022/05/30 04:39:29;;;;;;;4.40;1.13;;;;;;;;;;5061866;28;20031;-72
2022/05/30 04:41:55;;;;;;;5.13;1.23;;;;;;;;;;5078392;28;20032;-72
2022/05/30 04:44:21;;;;;;;4.80;1.50;;;;;;;;;;5072408;28;20487;-74
2022/05/30 04:46:56;;;;;;;5.20;1.20;;;;;;;;;;5062451;28;20028;-74
2022/05/30 04:49:23;;;;;;;2.55;1.30;;;;;;;;;;5071743;28;20040;-75
2022/05/30 04:51:50;;;;;;;3.88;1.20;;;;;;;;;;5063296;28;20032;-75
2022/05/30 04:54:16;;;;;;;2.97;1.38;;;;;;;;;;5073657;28;20036;-73
2022/05/30 04:56:42;;;;;;;4.13;1.70;;;;;;;;;;5067516;28;20122;-72
2022/05/30 04:59:08;;;;;;;5.05;1.52;;;;;;;;;;5067565;28;20422;-72
2022/05/30 05:01:35;;;;;;;4.15;1.15;;;;;;;;;;5064355;28;20032;-71
2022/05/30 05:04:01;;;;;;;6.15;1.50;;;;;;;;;;5066938;28;20037;-71
2022/05/30 05:06:27;;;;;;;5.35;1.00;;;;;;;;;;5072224;28;20110;-71
2022/05/30 05:08:56;;;;;;;3.92;1.55;;;;;;;;;;5081022;28;20024;-71
2022/05/30 05:11:23;;;;;;;3.17;0.98;;;;;;;;;;5079778;28;20043;-71
2022/05/30 05:13:49;;;;;;;4.25;1.05;;;;;;;;;;5076288;28;20411;-71
2022/05/30 05:16:16;;;;;;;3.50;1.10;;;;;;;;;;5084802;28;20086;-71
2022/05/30 05:18:42;;;;;;;3.80;1.25;;;;;;;;;;5071116;28;20033;-71
2022/05/30 05:21:08;;;;;;;2.00;0.80;;;;;;;;;;5088994;28;20061;-71
2022/05/30 05:23:34;;;;;;;2.58;0.80;;;;;;;;;;5067501;28;20511;-71
2022/05/30 05:26:01;;;;;;;1.35;0.85;;;;;;;;;;5081584;28;20483;-71
2022/05/30 05:28:28;;;;;;;3.55;1.17;;;;;;;;;;5086388;28;20028;-71
2022/05/30 05:30:54;;;;;;;2.47;0.70;;;;;;;;;;5074114;28;20024;-71
2022/05/30 05:33:20;;;;;;;4.40;0.63;;;;;;;;;;5082922;28;20041;-71
2022/05/30 05:35:47;;;;;;;5.53;1.05;;;;;;;;;;5083974;28;20028;-72
2022/05/30 05:38:13;;;;;;;1.60;0.70;;;;;;;;;;5067123;28;20029;-72
2022/05/30 05:40:40;;;;;;;2.05;0.80;;;;;;;;;;5064681;28;20159;-71
2022/05/30 05:43:06;;;;;;;1.52;0.63;;;;;;;;;;5073591;28;20150;-73
2022/05/30 05:45:36;;;;;;;3.78;0.70;;;;;;;;;;5065265;28;20090;-71
2022/05/30 05:48:02;;;;;;;4.18;0.63;;;;;;;;;;5072642;28;20028;-81
2022/05/30 05:50:28;;;;;;;2.75;0.70;;;;;;;;;;5070147;28;20040;-74
2022/05/30 05:52:54;;;;;;;2.45;0.60;;;;;;;;;;5060484;28;20044;-72
2022/05/30 05:55:21;;;;;;;1.90;0.50;;;;;;;;;;5070176;28;20029;-72
2022/05/30 05:57:47;;;;;;;3.08;0.82;;;;;;;;;;5054047;28;20476;-73
2022/05/30 06:00:13;;;;;;;1.58;0.45;;;;;;;;;;5072320;28;20052;-72
2022/05/30 06:02:40;;;;;;;2.10;0.35;;;;;;;;;;5088686;28;20075;-72
2022/05/30 06:05:06;;;;;;;2.63;0.47;;;;;;;;;;5070461;28;20131;-73
2022/05/30 06:07:35;;;;;;;2.55;0.43;;;;;;;;;;5053755;28;20051;-73
2022/05/30 06:10:01;;;;;;;6.93;0.60;;;;;;;;;;5069883;28;20033;-72
2022/05/30 06:12:27;;;;;;;2.28;0.60;;;;;;;;;;5072597;28;20033;-72
2022/05/30 06:14:53;;;;;;;1.48;0.30;;;;;;;;;;5070498;28;20086;-72
2022/05/30 06:17:19;;;;;;;3.40;0.70;;;;;;;;;;5064500;28;20392;-73
2022/05/30 06:19:48;;;;;;;3.28;0.65;;;;;;;;;;5070264;28;20029;-74
2022/05/30 06:22:14;;;;;;;2.40;0.50;;;;;;;;;;5076631;28;20051;-73
2022/05/30 06:24:40;;;;;;;1.13;0.30;;;;;;;;;;5073005;28;20412;-74
2022/05/30 06:27:07;;;;;;;1.40;0.43;;;;;;;;;;5090650;28;20047;-73
2022/05/30 06:29:33;;;;;;;1.77;0.38;;;;;;;;;;5063978;28;20059;-73
2022/05/30 06:32:00;;;;;;;2.42;1.05;;;;;;;;;;5065729;28;20033;-72
2022/05/30 06:34:26;;;;;;;1.88;0.40;;;;;;;;;;5068583;28;20084;-73
2022/05/30 06:36:52;;;;;;;0.88;0.30;;;;;;;;;;5083403;28;20036;-72
2022/05/30 06:39:18;;;;;;;4.95;0.65;;;;;;;;;;5061677;28;20070;-74
2022/05/30 06:41:44;;;;;;;3.47;0.50;;;;;;;;;;5059202;28;20070;-74
2022/05/30 06:44:11;;;;;;;2.83;0.57;;;;;;;;;;5066589;28;20036;-74
2022/05/30 06:46:38;;;;;;;3.42;0.80;;;;;;;;;;5064148;28;20040;-74
2022/05/30 06:49:05;;;;;;;1.83;0.38;;;;;;;;;;5061820;28;20111;-74
2022/05/30 06:51:34;;;;;;;9.40;0.77;;;14.00;99.90;;;;;;5077283;28;20031;-74
2022/05/30 06:54:01;;;;;;;2.40;0.45;;;;;;;;;;5073512;28;20024;-74
2022/05/30 06:56:29;;;;;;;4.47;0.75;;;;;;;;;;5059283;28;20025;-74
2022/05/30 06:58:55;;;;;;;2.90;0.55;;;;;;;;;;5059963;28;20126;-74
2022/05/30 07:01:29;;;;;;;6.40;1.02;;;;;;;;;;5065153;28;20028;-73
2022/05/30 07:03:55;;;;;;;2.67;0.30;;;;;;;;;;5074011;28;20036;-74
2022/05/30 07:06:26;;;;;;;4.03;0.50;;;;;;;;;;5066189;28;20056;-77
2022/05/30 07:08:52;;;;;;;2.50;0.50;;;;;;;;;;5066970;28;20048;-76
2022/05/30 07:11:19;;;;;;;4.07;0.60;;;;;;;;;;5068195;28;20068;-74
2022/05/30 07:13:45;;;;;;;3.20;0.80;;;;;;;;;;5072754;28;20488;-73
2022/05/30 07:16:12;;;;;;;11.40;5.55;;;;;;;;;;5078444;28;20028;-72
2022/05/30 07:18:43;;;;;;;2.90;0.70;;;;;;;;;;5075230;28;20428;-71
2022/05/30 07:21:10;;;;;;;1.83;0.70;;;;;;;;;;5072366;28;20031;-73
2022/05/30 07:23:37;;;;;;;3.90;0.57;;;;;;;;;;5071190;28;20037;-74
2022/05/30 07:26:05;;;;;;;2.75;0.60;;;;;;;;;;5080055;28;20111;-73
2022/05/30 07:28:31;;;;;;;5.80;0.50;;;;;;;;;;5080296;28;20052;-73
2022/05/30 07:31:04;;;;;;;2.00;0.60;;;;;;;;;;5070437;28;20531;-73
2022/05/30 07:33:30;;;;;;;4.07;1.10;;;;;;;;;;5070300;28;20043;-73
2022/05/30 07:35:56;;;;;;;9.63;4.00;;;;;;;;;;5070822;28;20032;-73
2022/05/30 07:38:22;;;;;;;1.83;0.90;;;;;;;;;;5078719;28;20376;-73
2022/05/30 07:40:48;;;;;;;1.95;0.38;;;;;;;;;;5078986;28;20081;-73
2022/05/30 07:43:14;;;;;;;1.50;0.50;;;;;;;;;;5079601;28;20047;-73
2022/05/30 07:45:40;;;;;;;1.52;0.60;;;;;;;;;;5067239;28;20028;-72
2022/05/30 07:48:06;;;;;;;1.13;0.20;;;;;;;;;;5071611;28;20078;-72
2022/05/30 07:50:36;;;;;;;0.35;0.20;;;15.40;99.90;;;;;;5074411;28;20039;-72
2022/05/30 07:53:03;;;;;;;2.13;0.40;;;;;;;;;;5069134;28;20036;-72
2022/05/30 07:55:29;;;;;;;2.22;0.80;;;;;;;;;;5068958;28;20376;-72
2022/05/30 07:57:59;;;;;;;1.13;0.30;;;;;;;;;;5063391;28;20194;-72
2022/05/30 08:00:27;;;;;;;1.75;0.30;;;16.50;99.90;;;;;;5071845;28;20037;-72
2022/05/30 08:02:54;;;;;;;2.63;0.30;;;;;;;;;;5070281;28;20033;-72
2022/05/30 08:05:20;;;;;;;2.38;0.60;;;;;;;;;;5069269;28;20020;-72
2022/05/30 08:07:47;;;;;;;4.03;0.47;;;;;;;;;;5060523;28;20093;-72
2022/05/30 08:10:14;;;;;;;1.92;0.35;;;;;;;;;;5071199;28;20029;-72
2022/05/30 08:12:40;;;;;;;1.75;0.32;;;;;;;;;;5062535;28;20033;-72
2022/05/30 08:15:06;;;;;;;1.05;0.47;;;;;;;;;;5081364;28;20032;-71
2022/05/30 08:17:32;;;;;;;3.28;0.30;;;;;;;;;;5055087;28;20146;-72
2022/05/30 08:20:01;;;;;;;2.67;0.68;;;;;;;;;;5063501;28;20032;-71
2022/05/30 08:22:27;;;;;;;1.60;0.70;;;;;;;;;;5088029;28;20360;-72
2022/05/30 08:24:53;;;;;;;3.38;0.38;;;;;;;;;;5074334;28;20025;-72
2022/05/30 08:27:20;;;;;;;1.15;0.60;;;13.90;99.90;;;;;;5044210;28;20112;-72
2022/05/30 08:29:47;;;;;;;3.47;0.90;;;;;;;;;;5061387;28;20036;-72
2022/05/30 08:32:13;;;;;;;1.30;0.40;;;;;;;;;;5071075;28;20032;-73
2022/05/30 08:34:40;;;;;;;2.75;0.52;;;;;;;;;;5078346;28;20044;-73
2022/05/30 08:37:06;;;;;;;17.27;8.55;;;;;;;;;;5063385;28;20115;-71
2022/05/30 08:42:19;;;;;;;3.58;1.63;;;;;;;;;;5065766;28;20086;-71
2022/05/30 08:44:45;;;;;;;0.85;0.28;;;;;;;;;;5065713;28;20044;-72
2022/05/30 08:47:23;;;;;;;1.08;0.40;;;;;;;;;;5071798;28;20487;-73
2022/05/30 08:49:52;;;;;;;1.02;0.30;;;;;;;;;;5080581;28;20429;-73
2022/05/30 08:52:27;;;;;;;2.95;0.28;;;;;;;;;;5070660;28;20024;-73
2022/05/30 08:55:02;;;;;;;2.15;0.30;;;;;;;;;;5073144;28;20100;-73
2022/05/30 08:57:32;;;;;;;2.33;0.25;;;;;;;;;;5069885;28;20032;-73
2022/05/30 09:00:08;;;;;;;1.70;0.70;;;15.60;99.90;;;;;;5076875;28;20476;-73
2022/05/30 09:02:45;;;;;;;0.90;0.40;;;;;;;;;;5071709;28;20058;-73
2022/05/30 09:05:16;;;;;;;10.63;5.63;;;;;;;;;;5067529;28;20020;-72
2022/05/30 09:07:47;;;;;;;0.73;0.47;;;;;;;;;;5088759;28;20044;-72
2022/05/30 09:10:33;;;;;;;1.77;0.25;;;;;;;;;;5076773;28;20036;-73
2022/05/30 09:13:06;;;;;;;1.83;0.63;;;;;;;;;;5051663;28;20499;-71
2022/05/30 09:15:43;;;;;;;2.03;0.45;;;;;;;;;;5077231;28;20376;-70
2022/05/30 09:18:28;;;;;;;2.30;0.35;;;;;;;;;;5068433;28;20439;-72
2022/05/30 09:20:54;;;;;;;2.30;0.30;;;;;;;;;;5051339;28;20065;-72
2022/05/30 09:23:23;;;;;;;3.47;0.45;;;;;;;;;;5084952;28;20047;-71
2022/05/30 09:26:01;;;;;;;1.98;0.30;;;;;;;;;;5073023;28;20104;-74
2022/05/30 09:28:34;;;;;;;4.35;0.57;;;;;;;;;;5061775;28;20032;-73
2022/05/30 09:31:15;;;;;;;1.58;0.40;;;;;;;;;;5058344;28;20078;-73
2022/05/30 09:33:44;;;;;;;2.88;0.30;;;16.80;99.90;;;;;;5053932;28;20071;-73
2022/05/30 09:36:19;;;;;;;3.08;0.60;;;;;;;;;;5059765;28;20134;-71
2022/05/30 09:38:57;;;;;;;3.65;0.47;;;;;;;;;;5071017;28;20352;-70
2022/05/30 09:41:43;;;;;;;1.48;0.20;;;15.50;99.90;;;;;;5085842;28;20031;-72
2022/05/30 09:44:09;;;;;;;4.05;1.35;;;;;;;;;;5071330;28;20487;-71
2022/05/30 09:46:39;;;;;;;1.52;0.30;;;;;;;;;;5059661;28;20040;-71
2022/05/30 09:49:07;;;;;;;2.33;0.47;;;;;;;;;;5066816;28;20035;-70
2022/05/30 09:51:33;;;;;;;2.03;0.45;;;;;;;;;;5077281;28;20028;-70
2022/05/30 09:53:59;;;;;;;1.33;0.30;;;;;;;;;;5073044;28;20504;-70
2022/05/30 09:56:27;;;;;;;1.67;0.25;;;;;;;;;;5058000;28;20021;-70
2022/05/30 09:59:27;;;;;;;1.27;0.30;;;13.80;99.90;;;;;;5059814;28;20060;-70
2022/05/30 10:01:54;;;;;;;0.35;0.20;;;;;;;;;;5068143;28;20024;-70
2022/05/30 10:04:39;;;;;;;3.60;1.00;;;;;;;;;;5089458;28;20047;-70
2022/05/30 10:07:07;;;;;;;3.13;0.70;;;;;;;;;;5069285;28;20115;-70
2022/05/30 10:09:37;;;;;;;1.85;0.30;;;;;;;;;;5062999;28;20036;-70
2022/05/30 10:12:03;;;;;;;3.75;0.30;;;;;;;;;;5072691;28;20108;-71
2022/05/30 10:14:34;;;;;;;2.80;0.60;;;13.90;99.90;;;;;;5072923;28;20561;-71
2022/05/30 10:17:10;;;;;;;1.85;0.50;;;;;;;;;;5081076;28;20036;-73
2022/05/30 10:19:39;;;;;;;1.35;0.47;;;;;;;;;;5059162;28;20032;-71
2022/05/30 10:28:26;;;;;;;2.40;0.52;;;16.60;99.90;;;;;;5061299;28;20036;-72
2022/05/30 10:31:24;;;;;;;2.00;0.38;;;17.10;99.90;;;;;;5064865;28;20028;-72
2022/05/30 10:34:02;;;;;;;1.33;0.30;;;;;;;;;;5068690;28;20063;-71
2022/05/30 10:36:31;;;;;;;1.60;0.28;;;;;;;;;;5071648;28;20056;-71
2022/05/30 10:39:07;;;;;;;1.25;0.25;;;;;;;;;;5060568;28;20032;-72
2022/05/30 10:41:53;;;;;;;4.47;0.30;;;;;;;;;;5055799;28;20475;-72
2022/05/30 10:44:32;;;;;;;0.93;0.38;;;;;;;;;;5057399;28;20568;-71
2022/05/30 10:47:04;;;;;;;2.78;0.38;;;;;;;;;;5071590;28;20098;-72
2022/05/30 10:49:36;;;;;;;1.33;0.20;;;;;;;;;;5068132;28;20028;-72
2022/05/30 10:52:07;;;;;;;4.00;0.60;;;;;;;;;;5060652;28;20044;-72
2022/05/30 10:54:35;;;;;;;2.47;0.50;;;;;;;;;;5065940;28;20043;-72
2022/05/30 10:57:39;;;;;;;2.88;0.60;;;17.50;99.90;;;;;;5065339;28;20464;-72
2022/05/30 11:00:09;;;;;;;2.78;0.50;;;;;;;;;;5068282;28;20097;-73
2022/05/30 11:02:49;;;;;;;2.08;0.47;;;;;;;;;;5060568;28;20076;-71
2022/05/30 11:05:21;;;;;;;1.05;0.40;;;;;;;;;;5067804;28;20028;-70
2022/05/30 11:08:05;;;;;;;0.80;0.30;;;17.50;99.90;;;;;;5052620;28;20060;-70
2022/05/30 11:10:50;;;;;;;1.90;0.50;;;;;;;;;;5044802;28;20080;-72
2022/05/30 11:13:28;;;;;;;2.28;0.45;;;;;;;;;;5024148;28;20064;-72
2022/05/30 11:15:57;;;;;;;3.65;0.40;;;;;;;;;;5041999;28;20484;-71
2022/05/30 11:18:41;;;;;;;1.35;0.40;;;;;;;;;;5040583;28;20030;-72
2022/05/30 11:21:23;;;;;;;2.33;0.40;;;;;;;;;;5040856;28;20100;-72
2022/05/30 11:23:49;;;;;;;1.67;0.50;;;;;;;;;;5042988;28;20083;-72
2022/05/30 11:26:39;;;;;;;2.15;0.38;;;17.60;99.30;;;;;;5049321;28;20108;-72
2022/05/30 11:29:08;;;;;;;1.67;0.52;;;;;;;;;;5044927;28;20099;-71
2022/05/30 11:31:53;;;;;;;8.38;0.80;;;;;;;;;;5049205;28;20021;-72
2022/05/30 11:34:19;;;;;;;4.15;0.70;;;;;;;;;;5064334;28;20094;-72
2022/05/30 11:36:58;;;;;;;3.95;0.50;;;;;;;;;;5069158;28;20028;-72
2022/05/30 11:39:24;;;;;;;2.38;0.57;;;;;;;;;;5072179;28;20052;-72
2022/05/30 11:42:02;;;;;;;4.15;0.50;;;;;;;;;;5053493;28;20113;-72
2022/05/30 11:44:35;;;;;;;5.85;0.38;;;;;;;;;;5061292;28;20045;-72
2022/05/30 11:47:16;;;;;;;5.95;0.70;;;;;;;;;;5070811;28;20038;-72
2022/05/30 11:50:01;;;;;;;4.10;0.77;;;;;;;;;;5069813;28;20047;-72
2022/05/30 11:52:35;;;;;;;3.42;0.50;;;16.40;99.90;;;;;;5061508;28;20032;-72
2022/05/30 11:55:24;;;;;;;1.45;0.47;;;16.60;99.90;;;;;;5066161;28;20112;-72
2022/05/30 11:57:54;;;;;;;3.80;0.60;;;;;;;;;;5064407;28;20074;-72
2022/05/30 12:00:32;;;;;;;8.27;0.68;;;;;;;;;;5081098;28;20102;-72
2022/05/30 12:03:03;;;;;;;0.98;0.38;;;;;;;;;;5058828;28;20039;-72
2022/05/30 12:05:58;;;;;;;3.63;0.43;;;;;;;;;;5070362;28;20578;-72
2022/05/30 12:08:39;;;;;;;6.13;1.70;;;;;;;;;;5007133;28;20505;-72
2022/05/30 12:11:08;;;;;;;3.65;0.55;;;;;;;;;;5008972;28;20038;-72
2022/05/30 12:13:52;;;;;;;4.75;0.50;;;;;;;;;;5056867;28;20051;-72
2022/05/30 12:16:21;;;;;;;2.78;0.75;;;;;;;;;;5061776;28;20361;-72
2022/05/30 12:24:19;;;;;;;3.00;1.02;;;;;;;;;;5069136;28;20067;-72
2022/05/30 12:26:48;;;;;;;1.83;0.52;;;;;;;;;;5069795;28;20527;-72
2022/05/30 12:29:50;;;;;;;3.70;0.60;;;;;;;;;;5052618;28;20032;-72
2022/05/30 12:32:36;;;;;;;3.25;0.40;;;;;;;;;;5029565;28;20060;-72
2022/05/30 12:37:44;;;;;;;3.42;0.32;;;;;;;;;;5070215;28;20656;-72
2022/05/30 12:40:13;;;;;;;2.38;0.50;;;;;;;;;;5071539;28;20024;-70
2022/05/30 12:42:43;;;;;;;3.80;0.40;;;;;;;;;;5064233;28;20091;-71
2022/05/30 12:45:32;;;;;;;3.28;0.50;;;;;;;;;;5052788;28;20036;-71
2022/05/30 12:47:58;;;;;;;6.80;0.60;;;;;;;;;;5042278;28;20045;-71
2022/05/30 12:50:31;;;;;;;4.07;2.05;;;;;;;;;;5068193;28;20036;-72
2022/05/30 12:52:56;;;;;;;;;;;;;;;;;;5058596;28;20120;-72
2022/05/30 12:55:33;;;;;;;3.15;0.40;;;;;;;;;;5051257;28;19908;-72
2022/05/30 12:57:59;;;;;;;2.95;0.32;;;;;;;;;;5049466;28;20079;-73
2022/05/30 13:00:37;;;;;;;2.35;0.60;;;;;;;;;;5070831;28;20028;-73
2022/05/30 13:03:24;;;;;;;2.08;0.45;;;;;;;;;;5062670;28;20037;-73
2022/05/30 13:06:02;;;;;;;4.85;0.50;;;;;;;;;;5053249;28;20025;-72
2022/05/30 13:09:03;;;;;;;2.30;0.43;;;17.50;99.90;;;;;;5050489;28;20091;-73
2022/05/30 13:11:48;;;;;;;3.42;0.70;;;;;;;;;;5017023;28;20642;-73
2022/05/30 13:14:52;;;;;;;4.50;0.73;;;17.00;99.90;;;;;;5062418;28;20095;-73
2022/05/30 13:17:24;;;;;;;3.03;0.63;;;;;;;;;;5006886;28;20105;-73
2022/05/30 13:19:54;;;;;;;3.15;0.47;;;;;;;;;;4984636;28;20141;-72
2022/05/30 13:22:30;;;;;;;24.20;14.80;;;;;;;;;;5026492;28;20036;-72
2022/05/30 13:24:57;;;;;;;5.45;0.70;;;;;;;;;;5060370;28;20056;-72
2022/05/30 13:27:23;;;;;;;4.57;0.70;;;;;;;;;;5071911;28;20032;-71
2022/05/30 13:29:49;;;;;;;4.10;0.65;;;;;;;;;;5063847;28;20024;-71
2022/05/30 13:32:16;;;;;;;3.05;0.95;;;;;;;;;;5072300;28;20044;-72
2022/05/30 13:34:48;;;;;;;3.25;0.70;;;;;;;;;;5082394;28;20082;-75
2022/05/30 13:37:15;;;;;;;2.63;0.50;;;;;;;;;;5062993;28;20020;-73
2022/05/30 13:39:50;;;;;;;4.20;0.70;;;;;;;;;;5073805;28;20036;-73
2022/05/30 13:42:16;;;;;;;1.70;0.43;;;;;;;;;;5053179;28;20044;-75
2022/05/30 13:44:42;;;;;;;3.45;0.55;;;;;;;;;;5060488;28;20041;-74
2022/05/30 13:47:17;;;;;;;3.92;0.50;;;;;;;;;;5071216;28;20429;-74
2022/05/30 13:49:44;;;;;;;4.63;1.02;;;;;;;;;;5059116;28;20053;-74
2022/05/30 13:52:30;;;;;;;5.82;0.80;;;16.30;99.90;;;;;;5069179;28;20107;-72
2022/05/30 13:54:58;;;;;;;2.67;0.40;;;;;;;;;;5057319;28;20452;-73
2022/05/30 13:57:27;;;;;;;5.70;0.40;;;16.10;99.90;;;;;;5069802;28;20033;-73
2022/05/30 13:59:54;;;;;;;3.10;0.40;;;;;;;;;;5071617;28;20064;-73
2022/05/30 14:02:29;;;;;;;2.35;0.40;;;16.20;99.90;;;;;;5068135;28;20037;-73
2022/05/30 14:05:03;;;;;;;4.22;0.40;;;;;;;;;;5073121;28;20377;-73
2022/05/30 14:07:32;;;;;;;1.85;0.40;;;;;;;;;;5079332;28;20059;-73
2022/05/30 14:10:01;;;;;;;5.47;0.55;;;16.70;99.90;;;;;;5070702;28;20399;-73
2022/05/30 14:12:32;;;;;;;2.22;0.60;;;;;;;;;;5079012;28;20361;-73
2022/05/30 14:15:19;;;;;;;5.15;0.55;;;;;;;;;;5066841;28;20056;-71
2022/05/30 14:17:47;;;;;;;2.35;0.60;;;;;;;;;;5052134;28;20255;-72
2022/05/30 14:20:26;;;;;;;3.55;1.02;;;;;;;;;;5054421;28;20896;-72
2022/05/30 14:23:00;;;;;;;2.00;0.40;;;;;;;;;;5073310;28;20028;-72
2022/05/30 14:25:29;;;;;;;4.40;0.70;;;;;;;;;;5051760;28;20029;-72
2022/05/30 14:27:55;;;;;;;2.28;0.40;;;;;;;;;;5068182;28;20025;-72
2022/05/30 14:30:30;;;;;;;3.10;0.65;;;16.50;99.90;;;;;;5054242;28;20040;-72
2022/05/30 14:33:10;;;;;;;2.13;0.43;;;;;;;;;;5073071;28;20027;-72
2022/05/30 14:35:38;;;;;;;4.50;0.90;;;;;;;;;;5068764;28;20454;-72
2022/05/30 14:38:05;;;;;;;2.72;0.52;;;;;;;;;;5073983;28;20483;-72
2022/05/30 14:40:31;;;;;;;3.85;0.70;;;;;;;;;;5073792;28;20421;-72
2022/05/30 14:42:58;;;;;;;3.10;0.88;;;;;;;;;;5071687;28;20060;-70
2022/05/30 14:45:36;;;;;;;2.08;0.50;;;;;;;;;;5054194;28;20510;-71
2022/05/30 14:48:05;;;;;;;3.03;0.70;;;;;;;;;;5068350;28;20494;-72
2022/05/30 14:50:50;;;;;;;3.35;0.60;;;15.30;99.90;;;;;;5052070;28;20378;-72
2022/05/30 14:53:24;;;;;;;2.60;0.55;;;;;;;;;;5068429;28;20048;-71
2022/05/30 14:55:51;;;;;;;3.17;0.68;;;;;;;;;;5053041;28;20473;-71
2022/05/30 14:58:19;;;;;;;4.93;0.60;;;;;;;;;;5067834;28;20024;-71
2022/05/30 15:00:53;;;;;;;2.05;0.80;;;;;;;;;;5065779;28;20159;-71
2022/05/30 15:06:06;;;;;;;2.13;0.50;;;;;;;;;;5064233;28;20444;-71
2022/05/30 15:08:32;;;;;;;1.70;0.50;;;;;;;;;;5048481;28;20044;-71
2022/05/30 15:11:14;;;;;;;3.83;0.90;;;;;;;;;;5066389;28;20032;-69
2022/05/30 15:13:40;;;;;;;;;;;;;;;;;;5068863;28;20052;-72
2022/05/30 15:16:06;;;;;;;4.93;0.80;;;;;;;;;;5066439;28;19950;-72
2022/05/30 15:18:32;;;;;;;4.85;1.05;;;;;;;;;;5061989;28;20401;-72